^^
Datos históricos de la estación: Murcia-Puente Tocinos
Diario Informe para Agosto 14, 2019 Unidades:  Métrico    Ingés   Ambas
Diario Semanal Mensual Anual
  Máxima: Mínima: Promedio:
Temperatura: 23.9 °C 18.8 °C 21.6 °C
Punto de rocio: 19.8 °C 16.3 °C 18.2 °C
Humedad: 93% 71.7% 81%
Velocidad viento: 23.6km/h 0km/h 6.2km/h
Racha viento: 46.7km/h - -
Viento- - SSO
Presión: 1022.1 hPa 1016.3 hPa -
Precipitación: 9.6 mm    
 
 
Tabla de datos para Agosto 14, 2019
Hora Temperatura Punto de rocio Presión Viento Velocidad viento Racha viento Humedad Intensidad lluvia(por hora) Nubes
00:04 20.7 °C 17.7 °C 1020.7 hPa Calm   8 km/h 83% 0.0 mm
00:09 20.7 °C 17.7 °C 1020.6 hPa Sur 0.8 km/h 8 km/h 83% 0.0 mm
00:14 20.7 °C 17.7 °C 1020.6 hPa SSE 4.6 km/h 11.3 km/h 83% 0.0 mm
00:19 20.7 °C 17.8 °C 1020.6 hPa Sur 4.7 km/h 9.7 km/h 83.5% 0.0 mm
00:24 20.6 °C 17.8 °C 1020.6 hPa SSO 5 km/h 13.7 km/h 84% 0.0 mm
00:29 20.5 °C 17.9 °C 1020.6 hPa SSO 5.6 km/h 15.6 km/h 84.8% 0.0 mm
00:34 20.4 °C 17.8 °C 1020.7 hPa SO 8.4 km/h 16.1 km/h 85% 0.0 mm
00:39 20.5 °C 17.9 °C 1020.7 hPa SSO 8.4 km/h 19 km/h 85% 0.0 mm
00:44 20.6 °C 17.9 °C 1020.7 hPa SSO 8.7 km/h 25.1 km/h 85% 0.0 mm
00:49 20.6 °C 18 °C 1022.1 hPa SO 9.7 km/h 25.9 km/h 85% 0.0 mm
00:54 20.7 °C 18.1 °C 1022.1 hPa SO 14.8 km/h 32.8 km/h 85% 0.0 mm
00:59 20.7 °C 18.1 °C 1022.1 hPa SO 15.1 km/h 33.8 km/h 85.3% 0.0 mm
01:04 20.7 °C 18 °C 1022.1 hPa OSO 16.4 km/h 29.8 km/h 84.4% 0.0 mm
01:09 21 °C 17.8 °C 1021.8 hPa Oeste 16.3 km/h 30.6 km/h 81.5% 0.0 mm
01:14 21.4 °C 17.4 °C 1021.8 hPa Oeste 15.6 km/h 25.9 km/h 77.8% 0.0 mm
01:19 21.7 °C 17.2 °C 1021.8 hPa Oeste 15.3 km/h 30.6 km/h 75.7% 0.0 mm
01:24 21.8 °C 17 °C 1021.5 hPa ONO 13.7 km/h 30.6 km/h 73.9% 0.0 mm
01:29 22 °C 16.9 °C 1021.5 hPa ONO 13.9 km/h 29 km/h 73% 0.0 mm
01:34 22 °C 16.9 °C 1021.5 hPa NO 14.8 km/h 20.9 km/h 73% 0.0 mm
01:39 21.9 °C 16.7 °C 1021.4 hPa ONO 13.5 km/h 14.8 km/h 72.1% 0.0 mm
01:44 21.9 °C 16.7 °C 1021.4 hPa Oeste 8.4 km/h 20.9 km/h 72.6% 0.0 mm
01:49 21.8 °C 16.5 °C 1021.5 hPa ONO 10 km/h 43.1 km/h 71.7% 0.0 mm
01:54 21.4 °C 16.3 °C 1021.5 hPa ONO 17.2 km/h 43.5 km/h 72.8% 0.0 mm
01:59 21.1 °C 16.5 °C 1021.5 hPa ONO 16.7 km/h 27.4 km/h 75.1% 0.0 mm
02:04 20.9 °C 16.7 °C 1021.5 hPa ONO 14.8 km/h 25.9 km/h 77% 0.0 mm
02:09 20.7 °C 16.8 °C 1021.4 hPa ONO 13.9 km/h 25.7 km/h 78.5% 0.0 mm
02:14 20.6 °C 16.9 °C 1021.4 hPa ONO 10.3 km/h 20.9 km/h 79.1% 0.0 mm
02:19 20.6 °C 17 °C 1021.4 hPa North 9.5 km/h 16.1 km/h 80% 0.0 mm
02:24 20.5 °C 16.9 °C 1021.2 hPa NNE 5.8 km/h 11.3 km/h 80% 0.0 mm
02:29 20.4 °C 16.9 °C 1021.2 hPa ENE 5.2 km/h 7.4 km/h 80% 0.0 mm
02:34 20.4 °C 16.9 °C 1021.2 hPa ESE 2.9 km/h 8.7 km/h 80.3% 0.0 mm
02:39 20.4 °C 17.1 °C 1020.8 hPa SE 3.3 km/h 9.7 km/h 81% 0.0 mm
02:44 20.4 °C 17.1 °C 1020.8 hPa SSE 5 km/h 9.7 km/h 81% 0.0 mm
02:49 20.4 °C 17.1 °C 1020.8 hPa SSO 5.3 km/h 10 km/h 81% 0.0 mm
02:54 20.3 °C 17 °C 1020.7 hPa SSO 6.4 km/h 14.8 km/h 81% 0.0 mm
02:59 20.3 °C 16.9 °C 1020.7 hPa SSO 6.9 km/h 14.5 km/h 81% 0.0 mm
03:04 20.3 °C 16.9 °C 1020.8 hPa OSO 8.4 km/h 14.5 km/h 81% 0.0 mm
03:09 20.3 °C 16.9 °C 1020.8 hPa Sur 7.8 km/h 12.9 km/h 81% 0.0 mm
03:14 20.3 °C 16.9 °C 1020.8 hPa Sur 5 km/h 7.6 km/h 81% 0.0 mm
03:19 20.3 °C 16.9 °C 1020.8 hPa SSO 5 km/h 14.8 km/h 81% 0.0 mm
03:24 20.3 °C 17 °C 1020.5 hPa SO 5 km/h 14.5 km/h 81.3% 0.0 mm
03:29 20.3 °C 17 °C 1020.5 hPa SSO 5.4 km/h 11.9 km/h 81.2% 0.0 mm
03:34 20.4 °C 17 °C 1020.6 hPa SSO 6.9 km/h 14.8 km/h 81% 0.0 mm
03:39 20.4 °C 17.1 °C 1020.6 hPa SO 7.5 km/h 16.7 km/h 81% 0.0 mm
03:44 20.4 °C 17.1 °C 1020.6 hPa SO 10 km/h 16.7 km/h 81% 0.0 mm
03:49 20.4 °C 17.1 °C 1020.6 hPa SO 9.7 km/h 16.1 km/h 81% 0.0 mm
03:54 20.3 °C 17.1 °C 1020.1 hPa SO 8.7 km/h 14.5 km/h 81.9% 0.0 mm
03:59 20.3 °C 17.1 °C 1020.1 hPa SO 8.2 km/h 16.4 km/h 82% 0.0 mm
04:04 20.4 °C 17.2 °C 1021.5 hPa SSO 6.5 km/h 30.6 km/h 82% 0.0 mm
04:09 20.4 °C 17.2 °C 1021.5 hPa SO 8.7 km/h 35.9 km/h 81.6% 0.0 mm
04:14 20.7 °C 17 °C 1021.5 hPa OSO 18.3 km/h 46.3 km/h 79.5% 0.0 mm
04:19 20.9 °C 17.1 °C 1021.7 hPa OSO 19.4 km/h 46.7 km/h 79.1% 0.3 mm
04:24 20.6 °C 17.3 °C 1021.7 hPa OSO 23.6 km/h 41.8 km/h 81.2% 1.3 mm
04:29 20.2 °C 17.3 °C 1021.7 hPa Oeste 22 km/h 33.8 km/h 83.6% 3.4 mm
04:34 19.9 °C 17.3 °C 1021.7 hPa North 14 km/h 16.1 km/h 85.3% 4.7 mm
04:39 19.7 °C 17.5 °C 1020.9 hPa ENE 12.7 km/h 14.5 km/h 87.2% 5.2 mm
04:44 19.5 °C 17.5 °C 1020.8 hPa NNE 6.9 km/h 11.3 km/h 88.3% 5.7 mm
04:49 19.3 °C 17.5 °C 1020.8 hPa ONO 7.4 km/h 22.2 km/h 89.3% 6.4 mm
04:54 19.2 °C 17.5 °C 1020.2 hPa Oeste 9.5 km/h 22.5 km/h 90.1% 6.7 mm
04:59 19.1 °C 17.6 °C 1020.2 hPa SSO 8.5 km/h 14.5 km/h 91% 6.7 mm
05:04 19.1 °C 17.6 °C 1020.6 hPa ESE 5 km/h 9.7 km/h 91% 6.7 mm
05:09 19.1 °C 17.6 °C 1020.6 hPa SE 5.5 km/h 17.2 km/h 91.2% 6.7 mm
05:14 19 °C 17.6 °C 1020.6 hPa SE 7.6 km/h 17.7 km/h 92% 6.7 mm
05:19 18.9 °C 17.6 °C 1020.6 hPa Este 7.7 km/h 14.8 km/h 92% 6.7 mm
05:24 18.8 °C 17.6 °C 1020.5 hPa Este 8.4 km/h 18.5 km/h 92.7% 6.1 mm
05:29 18.8 °C 17.7 °C 1020.5 hPa ENE 8.7 km/h 19.3 km/h 93% 5.1 mm
05:34 18.8 °C 17.7 °C 1020.5 hPa ENE 10.3 km/h 20.9 km/h 93% 2.8 mm
05:39 18.8 °C 17.5 °C 1019.5 hPa ENE 10.6 km/h 29.1 km/h 92.1% 2.0 mm
05:44 19.1 °C 17.6 °C 1019.4 hPa ENE 11.9 km/h 29.6 km/h 91.1% 1.3 mm
05:49 19.2 °C 17.5 °C 1019.4 hPa ENE 12.9 km/h 34.3 km/h 90% 0.8 mm
05:54 19.3 °C 17.6 °C 1018.0 hPa NE 17.2 km/h 34.3 km/h 89.6% 0.3 mm
05:59 19.4 °C 17.6 °C 1017.8 hPa ENE 17.6 km/h 37 km/h 89% 0.0 mm
06:04 19.4 °C 17.6 °C 1019.2 hPa Sur 19 km/h 37 km/h 89% 0.0 mm
06:09 19.4 °C 17.6 °C 1019.2 hPa Oeste 17.3 km/h 22.5 km/h 89% 0.0 mm
06:14 19.4 °C 17.6 °C 1019.2 hPa NNE 10 km/h 16.1 km/h 89% 0.0 mm
06:19 19.4 °C 17.6 °C 1019.2 hPa NNO 9.4 km/h 16.1 km/h 89% 0.0 mm
06:24 19.3 °C 17.5 °C 1018.4 hPa SSO 6.9 km/h 12.9 km/h 89% 0.0 mm
06:29 19.3 °C 17.5 °C 1018.3 hPa OSO 6.7 km/h 9.7 km/h 89.5% 0.0 mm
06:34 19.3 °C 17.6 °C 1019.0 hPa ONO 5.8 km/h 10 km/h 90% 0.0 mm
06:39 19.3 °C 17.5 °C 1019.0 hPa ONO 6 km/h 13 km/h 89.3% 0.0 mm
06:44 19.3 °C 17.4 °C 1019.0 hPa NNE 6.9 km/h 12.9 km/h 89% 0.0 mm
06:49 19.3 °C 17.4 °C 1019.1 hPa NO 6.3 km/h 9.3 km/h 89% 0.0 mm
06:54 19.3 °C 17.5 °C 1019.1 hPa NNO 3.9 km/h 9.7 km/h 89.3% 0.0 mm
06:59 19.2 °C 17.4 °C 1019.1 hPa NO 3.7 km/h 8 km/h 89.4% 0.0 mm
07:04 19.2 °C 17.5 °C 1019.1 hPa NO 2.9 km/h 7.6 km/h 90% 0.0 mm
07:09 19.2 °C 17.4 °C 1019.1 hPa ONO 3.2 km/h 10 km/h 89.7% 0.0 mm
07:14 19.3 °C 17.4 °C 1019.1 hPa ONO 4.7 km/h 10 km/h 89% 0.0 mm
07:19 19.3 °C 17.4 °C 1019.1 hPa ONO 4.9 km/h 9.7 km/h 89% 0.0 mm
07:24 19.3 °C 17.4 °C 1019.0 hPa NNO 5.8 km/h 8 km/h 89% 0.0 mm
07:29 19.3 °C 17.6 °C 1019.0 hPa ESE 5.3 km/h 8 km/h 89.9% 0.0 mm
07:34 19.3 °C 17.6 °C 1019.1 hPa Sur 2.9 km/h 11.1 km/h 90% 0.0 mm
07:39 19.2 °C 17.5 °C 1019.1 hPa Oeste 3.3 km/h 11.3 km/h 90% 0.0 mm
07:44 19.1 °C 17.5 °C 1019.1 hPa Oeste 5 km/h 9.7 km/h 90.8% 0.0 mm
07:49 18.9 °C 17.4 °C 1019.1 hPa Oeste 4.1 km/h 4.8 km/h 91% 0.0 mm
07:54 18.9 °C 17.4 °C 1018.9 hPa Calm     91% 0.0 mm
07:59 18.9 °C 17.4 °C 1018.9 hPa Calm     91% 0.0 mm
08:04 18.9 °C 17.4 °C 1019.1 hPa Calm     91% 0.0 mm
08:09 19 °C 17.5 °C 1019.1 hPa Calm     91% 0.0 mm
08:14 19.1 °C 17.6 °C 1019.1 hPa Calm   7.4 km/h 91% 0.0 mm
08:19 19.1 °C 17.6 °C 1019.2 hPa ENE 0.5 km/h 8 km/h 91% 0.0 mm
08:24 19.1 °C 17.6 °C 1019.2 hPa Este 2.9 km/h 4.8 km/h 91% 0.0 mm
08:29 19.1 °C 17.7 °C 1019.2 hPa SSE 2.3 km/h   91.3% 0.0 mm
08:34 19.1 °C 17.7 °C 1019.2 hPa Calm   9.5 km/h 91.3% 0.0 mm
08:39 19.1 °C 17.8 °C 1019.1 hPa SSO 0.7 km/h 9.7 km/h 92% 0.0 mm
08:44 19.1 °C 17.8 °C 1019.1 hPa Sur 3.9 km/h 11.3 km/h 92% 0.0 mm
08:49 19.1 °C 17.7 °C 1019.3 hPa ESE 4 km/h 11.3 km/h 91.7% 0.0 mm
08:54 19.1 °C 17.6 °C 1019.3 hPa SSO 4.7 km/h 8 km/h 91% 0.0 mm
08:59 19.1 °C 17.6 °C 1019.3 hPa Sur 3.6 km/h 6.9 km/h 90.7% 0.0 mm
09:04 19.1 °C 17.5 °C 1019.3 hPa Calm   11.1 km/h 90% 0.0 mm
09:09 19.2 °C 17.5 °C 1019.1 hPa SO 1.3 km/h 11.3 km/h 90% 0.0 mm
09:14 19.3 °C 17.6 °C 1019.1 hPa SSO 6.9 km/h 11.3 km/h 90% 0.0 mm
09:19 19.3 °C 17.5 °C 1019.1 hPa SSO 6.8 km/h 13 km/h 89.3% 0.0 mm
09:24 19.5 °C 17.4 °C 1019.1 hPa SO 6.5 km/h 12.9 km/h 88.1% 0.0 mm
09:29 19.7 °C 17.5 °C 1019.1 hPa SSO 6.8 km/h 15.6 km/h 87.5% 0.0 mm
09:34 19.8 °C 17.4 °C 1019.3 hPa SSO 8.4 km/h 16.1 km/h 86% 0.0 mm
09:39 19.9 °C 17.3 °C 1019.3 hPa SSO 8.7 km/h 19 km/h 85.1% 0.0 mm
09:44 19.9 °C 17.3 °C 1019.3 hPa SSO 10 km/h 19.3 km/h 84.7% 0.0 mm
09:49 20 °C 17.3 °C 1019.3 hPa SSO 10 km/h 19 km/h 84% 0.0 mm
09:54 20.1 °C 17.4 °C 1019.3 hPa SO 10 km/h 19.3 km/h 84.2% 0.0 mm
09:59 20.2 °C 17.4 °C 1019.3 hPa SO 9.6 km/h 16.7 km/h 84% 0.0 mm
10:04 20.3 °C 17.6 °C 1019.4 hPa SO 8.4 km/h 16.1 km/h 84.3% 0.0 mm
10:09 20.4 °C 17.5 °C 1019.4 hPa OSO 8.2 km/h 16.7 km/h 83.6% 0.0 mm
10:14 20.4 °C 17.4 °C 1019.4 hPa SO 7.6 km/h 16.1 km/h 82.8% 0.0 mm
10:19 20.5 °C 17.4 °C 1019.4 hPa OSO 7.5 km/h 14.8 km/h 82.6% 0.0 mm
10:24 20.6 °C 17.4 °C 1019.4 hPa OSO 6.9 km/h 14.5 km/h 81.9% 0.0 mm
10:29 20.7 °C 17.4 °C 1019.4 hPa Oeste 6.9 km/h 12.9 km/h 81.3% 0.0 mm
10:34 20.8 °C 17.5 °C 1019.7 hPa SSO 6.9 km/h 11.3 km/h 81.3% 0.0 mm
10:39 20.8 °C 17.3 °C 1019.7 hPa OSO 6.2 km/h 8 km/h 80% 0.0 mm
10:44 20.9 °C 17.4 °C 1019.7 hPa SSO 2.9 km/h 8 km/h 80.3% 0.0 mm
10:49 21.1 °C 17.5 °C 1019.7 hPa OSO 2.8 km/h 6.4 km/h 80.2% 0.0 mm
10:54 21.2 °C 17.6 °C 1019.6 hPa OSO 2.2 km/h 7.6 km/h 79.8% 0.0 mm
10:59 21.2 °C 17.5 °C 1019.6 hPa SSO 2.4 km/h 8 km/h 79.3% 0.0 mm
11:04 21.3 °C 17.4 °C 1019.7 hPa SSO 2.9 km/h 10 km/h 78.4% 0.0 mm
11:09 21.3 °C 17.3 °C 1019.7 hPa OSO 3.1 km/h 9.7 km/h 77.7% 2.9 mm
11:14 21.4 °C 17.3 °C 1019.7 hPa ONO 3.9 km/h 8.4 km/h 77.7% 2.9 mm
11:19 21.5 °C 17.3 °C 1019.7 hPa Oeste 3.7 km/h 8 km/h 77.2% 2.9 mm
11:24 21.6 °C 17.5 °C 1019.6 hPa OSO 3.2 km/h 8 km/h 77.6% 2.9 mm
11:29 21.6 °C 17.2 °C 1019.6 hPa OSO 3.5 km/h 9.5 km/h 76.2% 2.9 mm
11:34 21.7 °C 17.3 °C 1019.6 hPa ONO 4.7 km/h 9.7 km/h 76.2% 2.9 mm
11:39 21.7 °C 17 °C 1019.6 hPa OSO 4.7 km/h 11.1 km/h 74.9% 2.9 mm
11:44 21.8 °C 17.1 °C 1019.6 hPa OSO 5 km/h 11.3 km/h 74.8% 2.9 mm
11:49 21.8 °C 16.9 °C 1019.7 hPa SO 5.1 km/h 11.1 km/h 74% 2.9 mm
11:54 21.8 °C 16.9 °C 1019.7 hPa SSO 5.8 km/h 11.3 km/h 74% 2.9 mm
11:59 21.9 °C 16.9 °C 1019.7 hPa SO 6 km/h 14.8 km/h 73.6% 2.9 mm
12:04 21.9 °C 17.1 °C 1019.9 hPa SSO 6.9 km/h 14.5 km/h 74% 2.9 mm
12:09 21.9 °C 17.2 °C 1019.9 hPa SSO 6.6 km/h 12.9 km/h 74.7% 2.9 mm
12:14 21.9 °C 17.3 °C 1019.9 hPa SSO 5 km/h 11.9 km/h 75.3% 0.0 mm
12:19 21.9 °C 17.5 °C 1020.2 hPa SSO 5.5 km/h 14.8 km/h 76% 0.0 mm
12:24 21.8 °C 17.6 °C 1020.2 hPa SSO 7.6 km/h 14.8 km/h 76.9% 0.0 mm
12:29 21.8 °C 17.7 °C 1020.2 hPa SSO 7.7 km/h 14.5 km/h 77.6% 0.0 mm
12:34 21.7 °C 17.7 °C 1020.2 hPa SO 8.4 km/h 11.3 km/h 78% 0.0 mm
12:39 21.7 °C 17.8 °C 1020.2 hPa SO 8.1 km/h 12.2 km/h 78.7% 0.0 mm
12:44 21.7 °C 17.7 °C 1020.2 hPa SO 6.9 km/h 13 km/h 78% 0.0 mm
12:49 21.7 °C 17.8 °C 1020.4 hPa SO 7.1 km/h 13.7 km/h 78.7% 0.0 mm
12:54 21.7 °C 17.8 °C 1020.4 hPa SO 7.6 km/h 14.5 km/h 78.6% 0.0 mm
12:59 21.7 °C 17.8 °C 1020.4 hPa SO 7.6 km/h 13 km/h 78.2% 0.0 mm
13:04 21.8 °C 17.9 °C 1020.5 hPa OSO 7.6 km/h 12.9 km/h 78.4% 0.0 mm
13:09 21.8 °C 17.9 °C 1020.5 hPa SO 7.3 km/h 11.1 km/h 78.7% 0.0 mm
13:14 21.8 °C 17.8 °C 1020.5 hPa OSO 5.8 km/h 11.3 km/h 78.1% 0.0 mm
13:19 21.9 °C 18 °C 1020.5 hPa OSO 5.6 km/h 9.7 km/h 78.6% 0.0 mm
13:24 21.9 °C 18 °C 1020.4 hPa OSO 4.7 km/h 8 km/h 78.5% 0.0 mm
13:29 21.9 °C 18.1 °C 1020.4 hPa OSO 4.4 km/h 8.4 km/h 78.8% 0.0 mm
13:34 21.9 °C 18 °C 1020.4 hPa ONO 3.2 km/h 8 km/h 78.1% 0.0 mm
13:39 22 °C 18.1 °C 1020.0 hPa NO 3.2 km/h 5.8 km/h 78.5% 0.0 mm
13:44 22.1 °C 18.3 °C 1020.0 hPa NNO 2.9 km/h 8.7 km/h 79% 0.0 mm
13:49 22.2 °C 18.6 °C 1020.0 hPa ENE 2.9 km/h 9.7 km/h 80.2% 0.0 mm
13:54 22.2 °C 18.4 °C 1019.7 hPa NE 2.9 km/h 9.7 km/h 79% 0.0 mm
13:59 22.3 °C 18.2 °C 1019.7 hPa NE 2.3 km/h 8 km/h 77.8% 0.0 mm
14:04 22.4 °C 18.3 °C 1019.7 hPa Calm   4.7 km/h 77.3% 0.0 mm
14:09 22.6 °C 18.4 °C 1019.3 hPa Calm   5.6 km/h 77% 0.0 mm
14:14 22.7 °C 18.2 °C 1019.3 hPa Calm   4.8 km/h 76.2% 0.0 mm
14:19 22.7 °C 18.3 °C 1019.3 hPa Calm   3.7 km/h 76.2% 0.0 mm
14:24 22.7 °C 18.2 °C 1019.2 hPa Calm   3.2 km/h 75.7% 0.0 mm
14:29 22.7 °C 18.2 °C 1019.2 hPa Calm     76% 0.0 mm
14:34 22.8 °C 18.3 °C 1019.2 hPa Calm   6.9 km/h 76% 0.0 mm
14:39 22.8 °C 18 °C 1019.0 hPa OSO 0.6 km/h 11.1 km/h 74.3% 0.0 mm
14:44 22.9 °C 18 °C 1019.0 hPa SO 3.2 km/h 11.3 km/h 74% 0.0 mm
14:49 22.9 °C 18.1 °C 1019.0 hPa OSO 3.7 km/h 9.7 km/h 74.5% 0.0 mm
14:54 23 °C 17.9 °C 1018.8 hPa SO 5.8 km/h 10 km/h 73.3% 0.0 mm
14:59 23.1 °C 18 °C 1018.8 hPa SO 6 km/h 11.1 km/h 73% 0.0 mm
15:04 23.1 °C 18.2 °C 1018.8 hPa SO 6.9 km/h 11.3 km/h 74% 0.0 mm
15:09 23.1 °C 18.3 °C 1018.6 hPa SO 6.7 km/h 11.3 km/h 74.6% 0.0 mm
15:14 23.1 °C 18.5 °C 1018.6 hPa SSO 5.8 km/h 11.1 km/h 75.3% 0.0 mm
15:19 23 °C 18.7 °C 1018.6 hPa SSO 5.9 km/h 11.3 km/h 76.6% 0.0 mm
15:24 23 °C 18.6 °C 1018.2 hPa SO 6.4 km/h 11.1 km/h 76.5% 0.0 mm
15:29 23 °C 18.6 °C 1018.2 hPa SO 6.3 km/h 11.9 km/h 76.1% 0.0 mm
15:34 23 °C 18.6 °C 1018.2 hPa SO 5.8 km/h 11.9 km/h 76% 0.0 mm
15:39 23.1 °C 18.8 °C 1018.0 hPa SSO 6.1 km/h 11.3 km/h 76.9% 0.0 mm
15:44 23.1 °C 19 °C 1018.0 hPa SSO 7.6 km/h 11.1 km/h 77.7% 0.0 mm
15:49 23.1 °C 18.8 °C 1018.0 hPa SO 7.4 km/h 13 km/h 76.8% 0.0 mm
15:54 23 °C 18.5 °C 1018.0 hPa SSO 6.9 km/h 13 km/h 75.8% 0.0 mm
15:59 23.1 °C 18.6 °C 1018.0 hPa Sur 7.3 km/h 12.9 km/h 76.2% 0.0 mm
16:04 23.1 °C 18.8 °C 1018.0 hPa Sur 8.4 km/h 11.1 km/h 76.7% 0.0 mm
16:09 23.1 °C 18.8 °C 1018.0 hPa SSO 8.1 km/h 13 km/h 76.9% 0.0 mm
16:14 23.1 °C 18.7 °C 1018.0 hPa SSO 6.9 km/h 13 km/h 76.3% 0.0 mm
16:19 23.1 °C 18.6 °C 1018.0 hPa SSO 7.3 km/h 14.8 km/h 76% 0.0 mm
16:24 23.1 °C 18.6 °C 1017.9 hPa SSO 8.7 km/h 14.5 km/h 76% 0.0 mm
16:29 23.2 °C 18.7 °C 1017.9 hPa SSO 8.6 km/h 13 km/h 75.8% 0.0 mm
16:34 23.2 °C 18.7 °C 1017.9 hPa SSO 8.4 km/h 12.9 km/h 75.9% 0.0 mm
16:39 23.3 °C 18.7 °C 1017.8 hPa SSO 7.8 km/h 8 km/h 75.5% 0.0 mm
16:44 23.4 °C 18.7 °C 1017.8 hPa SSO 5 km/h 9.3 km/h 75.1% 0.0 mm
16:49 23.4 °C 18.7 °C 1017.8 hPa SSO 5 km/h 9.7 km/h 74.8% 0.0 mm
16:54 23.5 °C 18.9 °C 1017.6 hPa SSE 5 km/h 8 km/h 75% 0.0 mm
16:59 23.6 °C 18.9 °C 1017.6 hPa SSE 4.8 km/h 8.7 km/h 75% 0.0 mm
17:04 23.7 °C 19 °C 1017.6 hPa SSE 3.9 km/h 8 km/h 75% 0.0 mm
17:09 23.7 °C 19 °C 1017.4 hPa Sur 4 km/h 10 km/h 75% 0.0 mm
17:14 23.7 °C 19 °C 1017.4 hPa Sur 4.7 km/h 9.7 km/h 75% 0.0 mm
17:19 23.8 °C 19.1 °C 1017.4 hPa Sur 3.8 km/h 3.7 km/h 75% 0.0 mm
17:24 23.8 °C 19.1 °C 1017.2 hPa Calm   7.4 km/h 75% 0.0 mm
17:29 23.8 °C 19.1 °C 1017.2 hPa SE 0.7 km/h 8 km/h 75% 0.0 mm
17:34 23.8 °C 19.2 °C 1017.2 hPa ESE 3.9 km/h 8 km/h 75.4% 0.0 mm
17:39 23.7 °C 19 °C 1017.1 hPa SO 3.7 km/h 7.6 km/h 74.9% 0.0 mm
17:44 23.7 °C 19.1 °C 1017.1 hPa SSO 3.2 km/h 9.3 km/h 75.3% 0.0 mm
17:49 23.7 °C 19.2 °C 1017.1 hPa ESE 3.6 km/h 9.7 km/h 76% 0.0 mm
17:54 23.7 °C 19 °C 1017.0 hPa SSE 5 km/h 8 km/h 75.1% 0.0 mm
17:59 23.7 °C 19.2 °C 1017.0 hPa SSE 4.6 km/h 8 km/h 75.9% 0.0 mm
18:04 23.7 °C 19.2 °C 1017.0 hPa Sur 3.2 km/h 5.8 km/h 76% 0.0 mm
18:09 23.7 °C 19.2 °C 1016.6 hPa ONO 3.2 km/h 8.7 km/h 75.6% 0.0 mm
18:14 23.8 °C 19.1 °C 1016.6 hPa OSO 2.9 km/h 9.7 km/h 75% 0.0 mm
18:19 23.8 °C 19.1 °C 1016.6 hPa OSO 3 km/h 8 km/h 74.9% 0.0 mm
18:24 23.8 °C 19 °C 1016.4 hPa Oeste 3.2 km/h 1.9 km/h 74.3% 0.0 mm
18:29 23.9 °C 19.1 °C 1016.4 hPa OSO 2.6 km/h 5.6 km/h 74.6% 0.0 mm
18:34 23.9 °C 19.5 °C 1016.5 hPa Calm   5.6 km/h 76.4% 0.0 mm
18:39 23.9 °C 19.6 °C 1016.5 hPa Calm   3.2 km/h 77% 0.0 mm
18:44 23.8 °C 19.5 °C 1016.5 hPa Calm     77% 0.0 mm
18:49 23.8 °C 19.4 °C 1016.5 hPa Calm     76.2% 0.0 mm
18:54 23.8 °C 19.3 °C 1016.3 hPa Calm   8.4 km/h 76% 0.0 mm
18:59 23.8 °C 19.3 °C 1016.3 hPa SSE 0.9 km/h 8.4 km/h 76% 0.0 mm
19:04 23.8 °C 19.5 °C 1016.3 hPa Sur 3.9 km/h 8 km/h 76.9% 0.0 mm
19:09 23.8 °C 19.5 °C 1016.3 hPa SSO 4.2 km/h 9.3 km/h 76.8% 0.0 mm
19:14 23.8 °C 19.3 °C 1016.3 hPa SSO 5.8 km/h 9.7 km/h 76% 0.0 mm
19:19 23.8 °C 19.3 °C 1016.4 hPa SSO 5.8 km/h 9.7 km/h 76% 0.0 mm
19:24 23.8 °C 19.3 °C 1016.4 hPa Sur 5.8 km/h 8 km/h 76% 0.0 mm
19:29 23.8 °C 19.3 °C 1016.4 hPa Sur 5.6 km/h 9.3 km/h 76% 0.0 mm
19:34 23.8 °C 19.3 °C 1016.5 hPa SSO 5 km/h 9.7 km/h 76% 0.0 mm
19:39 23.8 °C 19.3 °C 1016.5 hPa SSO 5.1 km/h 9.7 km/h 76% 0.0 mm
19:44 23.8 °C 19.4 °C 1016.5 hPa SSE 5.8 km/h 11.1 km/h 76.1% 0.0 mm
19:49 23.8 °C 19.4 °C 1016.7 hPa SSE 6 km/h 11.3 km/h 76.5% 0.0 mm
19:54 23.7 °C 19.4 °C 1016.7 hPa Sur 6.9 km/h 11.9 km/h 77% 0.0 mm
19:59 23.6 °C 19.5 °C 1016.7 hPa Sur 6.9 km/h 11.3 km/h 77.8% 0.0 mm
20:04 23.6 °C 19.5 °C 1016.8 hPa SSE 6.9 km/h 11.3 km/h 78% 0.0 mm
20:09 23.5 °C 19.4 °C 1016.8 hPa SSE 6.9 km/h 11.3 km/h 78% 0.0 mm
20:14 23.5 °C 19.4 °C 1016.8 hPa SSE 6.9 km/h 11.9 km/h 78% 0.0 mm
20:19 23.4 °C 19.4 °C 1017.1 hPa SSE 7.1 km/h 11.3 km/h 78% 0.0 mm
20:24 23.4 °C 19.3 °C 1017.1 hPa Sur 7.6 km/h 11.3 km/h 78% 0.0 mm
20:29 23.4 °C 19.3 °C 1017.1 hPa Sur 7.4 km/h 11.3 km/h 78% 0.0 mm
20:34 23.4 °C 19.3 °C 1017.2 hPa SSE 6.9 km/h 11.3 km/h 78% 0.0 mm
20:39 23.4 °C 19.3 °C 1017.2 hPa Sur 6.8 km/h 9.7 km/h 78% 0.0 mm
20:44 23.5 °C 19.4 °C 1017.2 hPa Sur 6.5 km/h 8.4 km/h 78% 0.0 mm
20:49 23.5 °C 19.5 °C 1017.3 hPa SSE 6.5 km/h 9.5 km/h 78% 0.0 mm
20:54 23.6 °C 19.6 °C 1017.3 hPa SE 6.5 km/h 9.7 km/h 78% 0.0 mm
20:59 23.6 °C 19.6 °C 1017.3 hPa SSE 6.5 km/h 10 km/h 78% 0.0 mm
21:04 23.6 °C 19.7 °C 1017.5 hPa SSE 6.5 km/h 11.1 km/h 78.8% 0.0 mm
21:09 23.5 °C 19.7 °C 1017.5 hPa SSE 6.7 km/h 11.9 km/h 79% 0.0 mm
21:14 23.4 °C 19.7 °C 1017.5 hPa Sur 7.6 km/h 11.9 km/h 79.4% 0.0 mm
21:19 23.4 °C 19.8 °C 1017.9 hPa Sur 7.7 km/h 13 km/h 80% 0.0 mm
21:24 23.4 °C 19.8 °C 1017.9 hPa Sur 8.4 km/h 12.9 km/h 80% 0.0 mm
21:29 23.4 °C 19.8 °C 1017.9 hPa SSO 8 km/h 11.3 km/h 80% 0.0 mm
21:34 23.4 °C 19.8 °C 1018.0 hPa SSO 6.5 km/h 9.7 km/h 80% 0.0 mm
21:39 23.5 °C 19.7 °C 1018.0 hPa SSO 6.2 km/h 8 km/h 79.2% 0.0 mm
21:44 23.5 °C 19.8 °C 1018.0 hPa Sur 5 km/h 8 km/h 79.8% 0.0 mm
21:49 23.5 °C 19.7 °C 1018.0 hPa Sur 4.8 km/h 8 km/h 79% 0.0 mm
21:54 23.5 °C 19.7 °C 1018.0 hPa Sur 3.9 km/h 8 km/h 79.1% 0.0 mm
21:59 23.5 °C 19.7 °C 1018.0 hPa Sur 3.6 km/h 6.4 km/h 79% 0.0 mm
22:04 23.5 °C 19.8 °C 1018.2 hPa SE 2.9 km/h 7.6 km/h 80% 0.0 mm
22:09 23.4 °C 19.8 °C 1018.2 hPa ESE 3.2 km/h 8 km/h 80% 0.0 mm
22:14 23.4 °C 19.8 °C 1018.2 hPa Este 4.7 km/h 9.3 km/h 80.2% 0.0 mm
22:19 23.3 °C 19.8 °C 1018.3 hPa ESE 4.9 km/h 9.7 km/h 81% 0.0 mm
22:24 23.2 °C 19.8 °C 1018.3 hPa SE 5.8 km/h 9.7 km/h 81% 0.0 mm
22:29 23.2 °C 19.6 °C 1018.3 hPa SSE 5.4 km/h 8.4 km/h 80.2% 0.0 mm
22:34 23.3 °C 19.7 °C 1018.3 hPa SSE 3.9 km/h 8 km/h 80% 0.0 mm
22:39 23.4 °C 19.6 °C 1018.3 hPa SSE 3.9 km/h 8 km/h 79.4% 0.0 mm
22:44 23.4 °C 19.6 °C 1018.3 hPa SSE 3.9 km/h 8 km/h 79% 0.0 mm
22:49 23.4 °C 19.6 °C 1018.3 hPa Sur 4.1 km/h 9.3 km/h 79% 0.0 mm
22:54 23.4 °C 19.6 °C 1018.2 hPa Sur 5 km/h 10 km/h 79% 0.0 mm
22:59 23.4 °C 19.7 °C 1018.2 hPa SSO 5.3 km/h 10.3 km/h 79.9% 0.0 mm
23:04 23.3 °C 19.7 °C 1018.2 hPa SSO 6.4 km/h 13.7 km/h 80% 0.0 mm
23:09 23.2 °C 19.6 °C 1018.1 hPa SSO 6.5 km/h 14.5 km/h 80% 0.0 mm
23:14 23.2 °C 19.7 °C 1018.1 hPa SO 6.9 km/h 11.3 km/h 80.6% 0.0 mm
23:19 23.2 °C 19.8 °C 1018.2 hPa SO 6.6 km/h 8.4 km/h 81% 0.0 mm
23:24 23.1 °C 19.7 °C 1018.2 hPa SO 5 km/h 8 km/h 81% 0.0 mm
23:29 23.1 °C 19.7 °C 1018.2 hPa SO 4.6 km/h 8 km/h 81% 0.0 mm
23:34 23 °C 19.8 °C 1018.2 hPa SO 3.2 km/h 4.8 km/h 81.9% 0.0 mm
23:39 22.9 °C 19.7 °C 1018.0 hPa SO 2.6 km/h 4.8 km/h 82% 0.0 mm
23:44 22.8 °C 19.8 °C 1018.0 hPa Calm     82.9% 0.0 mm
23:49 22.7 °C 19.7 °C 1018.1 hPa Calm     83.4% 0.0 mm
23:54 22.6 °C 19.8 °C 1018.1 hPa Calm   7.6 km/h 84.2% 0.0 mm
23:59 22.5 °C 19.8 °C 1018.1 hPa SO 0.7 km/h 8 km/h 85% 0.0 mm
Murcia-Puente Tocinos, España
Compliments of Weather Underground - 2.75 mb

La estación de MeteoMurcia.com, publica sus datos en los siguientes proyectos:

Weather Underground PWS IMURCIAP2 Meteoclimatic www.awekas.at

W3Counter
Web Analytics